createdAt,value
2022-11-21T00:00:19.455Z,59.97
2022-11-21T00:01:19.444Z,59.97
2022-11-21T00:02:19.490Z,59.97
2022-11-21T00:03:19.418Z,59.97
2022-11-21T00:04:19.414Z,59.97
2022-11-21T00:05:19.390Z,59.97
2022-11-21T00:06:19.380Z,59.97
2022-11-21T00:07:19.388Z,59.97
2022-11-21T00:08:19.352Z,59.97
2022-11-21T00:09:19.337Z,59.97
2022-11-21T00:10:19.327Z,59.97
2022-11-21T00:11:19.310Z,59.97
2022-11-21T00:12:19.300Z,60.07
2022-11-21T00:13:19.287Z,60.07
2022-11-21T00:14:19.274Z,59.97
2022-11-21T00:15:19.258Z,60.07
2022-11-21T00:16:19.248Z,60.07
2022-11-21T00:17:19.233Z,60.07
2022-11-21T00:18:19.222Z,60.07
2022-11-21T00:19:19.205Z,60.07
2022-11-21T00:20:19.194Z,60.07
2022-11-21T00:21:19.178Z,60.07
2022-11-21T00:22:19.168Z,60.07
2022-11-21T00:23:19.152Z,60.07
2022-11-21T00:24:19.141Z,60.07
2022-11-21T00:25:19.126Z,60.07
2022-11-21T00:26:19.115Z,60.07
2022-11-21T00:27:19.101Z,60.07
2022-11-21T00:28:19.094Z,60.07
2022-11-21T00:29:19.077Z,60.07
2022-11-21T00:30:19.061Z,60.17
2022-11-21T00:31:19.048Z,60.07
2022-11-21T00:32:19.036Z,60.17
2022-11-21T00:33:19.022Z,60.07
2022-11-21T00:34:19.010Z,60.07
2022-11-21T00:35:18.996Z,60.07
2022-11-21T00:36:18.985Z,60.07
2022-11-21T00:37:18.970Z,60.07
2022-11-21T00:38:18.956Z,60.07
2022-11-21T00:39:18.956Z,60.07
2022-11-21T00:40:18.934Z,60.07
2022-11-21T00:41:18.927Z,60.07
2022-11-21T00:42:18.905Z,60.07
2022-11-21T00:43:18.896Z,60.07
2022-11-21T00:44:18.896Z,60.07
2022-11-21T00:45:24.165Z,60.07
2022-11-21T00:46:18.852Z,60.07
2022-11-21T00:47:18.836Z,60.07
2022-11-21T00:48:18.824Z,60.07
2022-11-21T00:49:18.811Z,60.07
2022-11-21T00:50:18.799Z,60.07
2022-11-21T00:51:18.784Z,60.07
2022-11-21T00:52:18.772Z,60.07
2022-11-21T00:53:18.757Z,60.07
2022-11-21T00:54:18.746Z,60.07
2022-11-21T00:55:18.731Z,59.97
2022-11-21T00:56:18.719Z,60.07
2022-11-21T00:57:18.704Z,60.07
2022-11-21T00:58:18.694Z,60.07
2022-11-21T00:59:18.681Z,60.07
2022-11-21T01:00:18.667Z,60.07
2022-11-21T01:01:18.724Z,60.07
2022-11-21T01:02:18.641Z,60.07
2022-11-21T01:03:18.628Z,60.07
2022-11-21T01:04:18.614Z,60.07
2022-11-21T01:05:18.603Z,60.17
2022-11-21T01:06:18.589Z,60.07
2022-11-21T01:07:18.635Z,60.07
2022-11-21T01:08:18.561Z,60.17
2022-11-21T01:09:18.549Z,60.17
2022-11-21T01:10:18.536Z,60.07
2022-11-21T01:11:18.520Z,60.07
2022-11-21T01:12:18.508Z,60.07
2022-11-21T01:13:18.523Z,60.17
2022-11-21T01:14:18.483Z,60.17
2022-11-21T01:15:18.468Z,60.17
2022-11-21T01:16:18.461Z,60.17
2022-11-21T01:17:18.441Z,60.17
2022-11-21T01:18:18.429Z,60.17
2022-11-21T01:19:18.419Z,60.17
2022-11-21T01:20:18.403Z,60.17
2022-11-21T01:21:18.388Z,60.07
2022-11-21T01:22:18.377Z,60.17
2022-11-21T01:23:18.374Z,60.17
2022-11-21T01:24:18.350Z,60.07
2022-11-21T01:25:18.335Z,60.07
2022-11-21T01:26:18.329Z,60.07
2022-11-21T01:27:18.309Z,60.07
2022-11-21T01:28:18.297Z,60.07
2022-11-21T01:29:18.307Z,60.07
2022-11-21T01:30:18.270Z,60.07
2022-11-21T01:31:18.258Z,60.17
2022-11-21T01:32:18.245Z,60.07
2022-11-21T01:33:18.231Z,60.17
2022-11-21T01:34:18.220Z,60.17
2022-11-21T01:35:18.205Z,60.17
2022-11-21T01:36:18.194Z,60.17
2022-11-21T01:37:18.178Z,60.17
2022-11-21T01:38:24.172Z,60.17
2022-11-21T01:39:18.152Z,60.17
2022-11-21T01:40:18.143Z,60.07
2022-11-21T01:41:18.126Z,60.17
2022-11-21T01:42:18.115Z,60.17
2022-11-21T01:43:18.099Z,60.17
2022-11-21T01:44:18.090Z,60.17
2022-11-21T01:45:18.099Z,60.07
2022-11-21T01:46:18.061Z,60.17
2022-11-21T01:47:18.054Z,60.17
2022-11-21T01:48:18.041Z,60.17
2022-11-21T01:49:18.022Z,60.07
2022-11-21T01:50:18.010Z,60.07
2022-11-21T01:51:17.995Z,60.07
2022-11-21T01:52:17.983Z,60.17
2022-11-21T01:53:17.970Z,60.17
2022-11-21T01:54:17.956Z,60.17
2022-11-21T01:55:17.947Z,60.17
2022-11-21T01:56:17.931Z,60.17
2022-11-21T01:57:17.918Z,60.17
2022-11-21T01:58:17.905Z,60.17
2022-11-21T01:59:17.893Z,60.17
2022-11-21T02:00:17.878Z,60.07
2022-11-21T02:01:17.994Z,60.17
2022-11-21T02:02:17.854Z,60.07
2022-11-21T02:03:17.838Z,60.07
2022-11-21T02:04:17.830Z,60.17
2022-11-21T02:05:17.813Z,60.17
2022-11-21T02:06:17.800Z,60.17
2022-11-21T02:07:17.827Z,60.07
2022-11-21T02:08:17.776Z,60.17
2022-11-21T02:09:17.761Z,60.17
2022-11-21T02:10:17.748Z,60.07
2022-11-21T02:11:17.734Z,60.07
2022-11-21T02:12:17.721Z,60.07
2022-11-21T02:13:17.708Z,60.07
2022-11-21T02:14:17.695Z,60.17
2022-11-21T02:15:17.682Z,60.17
2022-11-21T02:16:17.673Z,60.17
2022-11-21T02:17:17.681Z,60.17
2022-11-21T02:18:17.645Z,60.17
2022-11-21T02:19:17.629Z,60.17
2022-11-21T02:20:17.621Z,60.17
2022-11-21T02:21:17.609Z,60.17
2022-11-21T02:22:17.591Z,60.17
2022-11-21T02:23:17.582Z,60.17
2022-11-21T02:24:17.565Z,60.17
2022-11-21T02:25:17.552Z,60.17
2022-11-21T02:26:17.540Z,60.17
2022-11-21T02:27:17.524Z,60.17
2022-11-21T02:28:17.513Z,60.17
2022-11-21T02:29:17.497Z,60.17
2022-11-21T02:30:17.489Z,60.17
2022-11-21T02:31:17.471Z,60.17
2022-11-21T02:32:17.460Z,60.17
2022-11-21T02:33:17.471Z,60.17
2022-11-21T02:34:17.434Z,60.17
2022-11-21T02:35:17.419Z,60.17
2022-11-21T02:36:17.405Z,60.17
2022-11-21T02:37:17.392Z,60.17
2022-11-21T02:38:17.380Z,60.27
2022-11-21T02:39:17.364Z,60.27
2022-11-21T02:40:17.353Z,60.27
2022-11-21T02:41:17.340Z,60.17
2022-11-21T02:42:17.327Z,60.17
2022-11-21T02:43:17.312Z,60.17
2022-11-21T02:44:17.302Z,60.17
2022-11-21T02:45:17.295Z,60.27
2022-11-21T02:46:17.277Z,60.27
2022-11-21T02:47:17.270Z,60.17
2022-11-21T02:48:17.250Z,60.27
2022-11-21T02:49:17.259Z,60.17
2022-11-21T02:50:17.224Z,60.27
2022-11-21T02:51:17.209Z,60.27
2022-11-21T02:52:17.198Z,60.17
2022-11-21T02:53:17.183Z,60.17
2022-11-21T02:54:17.171Z,60.17
2022-11-21T02:55:17.157Z,60.17
2022-11-21T02:56:17.144Z,60.17
2022-11-21T02:57:17.131Z,60.17
2022-11-21T02:58:17.119Z,60.17
2022-11-21T02:59:17.105Z,60.17
2022-11-21T03:00:17.093Z,60.17
2022-11-21T03:01:17.138Z,60.17
2022-11-21T03:02:17.075Z,60.17
2022-11-21T03:03:17.052Z,60.17
2022-11-21T03:04:17.044Z,60.17
2022-11-21T03:05:17.054Z,60.17
2022-11-21T03:06:17.016Z,60.17
2022-11-21T03:07:17.066Z,60.17
2022-11-21T03:08:16.989Z,60.17
2022-11-21T03:09:17.008Z,60.17
2022-11-21T03:10:16.965Z,60.17
2022-11-21T03:11:16.950Z,60.17
2022-11-21T03:12:16.940Z,60.17
2022-11-21T03:13:16.929Z,60.17
2022-11-21T03:14:16.912Z,60.17
2022-11-21T03:15:16.897Z,60.27
2022-11-21T03:16:16.886Z,60.27
2022-11-21T03:17:16.873Z,60.27
2022-11-21T03:18:16.859Z,60.27
2022-11-21T03:19:16.844Z,60.27
2022-11-21T03:20:16.836Z,60.27
2022-11-21T03:21:16.862Z,60.27
2022-11-21T03:22:16.810Z,60.27
2022-11-21T03:23:16.796Z,60.27
2022-11-21T03:24:16.782Z,60.27
2022-11-21T03:25:16.766Z,60.27
2022-11-21T03:26:16.759Z,60.27
2022-11-21T03:27:16.742Z,60.27
2022-11-21T03:28:16.732Z,60.27
2022-11-21T03:29:16.716Z,60.27
2022-11-21T03:30:16.705Z,60.27
2022-11-21T03:31:16.691Z,60.38
2022-11-21T03:32:16.678Z,60.38
2022-11-21T03:33:16.666Z,60.38
2022-11-21T03:34:16.657Z,60.38
2022-11-21T03:35:16.639Z,60.38
2022-11-21T03:36:16.630Z,60.38
2022-11-21T03:37:16.638Z,60.38
2022-11-21T03:38:16.601Z,60.38
2022-11-21T03:39:16.586Z,60.38
2022-11-21T03:40:16.586Z,60.38
2022-11-21T03:41:16.561Z,60.38
2022-11-21T03:42:16.547Z,60.38
2022-11-21T03:43:16.532Z,60.38
2022-11-21T03:44:16.523Z,60.38
2022-11-21T03:45:16.508Z,60.38
2022-11-21T03:46:16.497Z,60.38
2022-11-21T03:47:16.480Z,60.38
2022-11-21T03:48:16.470Z,60.38
2022-11-21T03:49:16.454Z,60.38
2022-11-21T03:50:16.444Z,60.38
2022-11-21T03:51:16.428Z,60.38
2022-11-21T03:52:16.417Z,60.38
2022-11-21T03:53:16.425Z,60.38
2022-11-21T03:54:16.390Z,60.27
2022-11-21T03:55:16.374Z,60.38
2022-11-21T03:56:16.365Z,60.38
2022-11-21T03:57:16.349Z,60.27
2022-11-21T03:58:16.337Z,60.27
2022-11-21T03:59:16.324Z,60.27
2022-11-21T04:00:16.312Z,60.27
2022-11-21T04:01:16.376Z,60.27
2022-11-21T04:02:16.283Z,60.38
2022-11-21T04:03:16.270Z,60.38
2022-11-21T04:04:16.258Z,60.38
2022-11-21T04:05:16.242Z,60.38
2022-11-21T04:06:16.233Z,60.27
2022-11-21T04:07:16.241Z,60.38
2022-11-21T04:08:16.205Z,60.27
2022-11-21T04:09:16.211Z,60.27
2022-11-21T04:10:16.180Z,60.38
2022-11-21T04:11:16.163Z,60.27
2022-11-21T04:12:16.153Z,60.27
2022-11-21T04:13:16.138Z,60.27
2022-11-21T04:14:16.126Z,60.27
2022-11-21T04:15:16.110Z,60.27
2022-11-21T04:16:16.100Z,60.27
2022-11-21T04:17:16.085Z,60.27
2022-11-21T04:18:16.072Z,60.27
2022-11-21T04:19:16.059Z,60.38
2022-11-21T04:20:16.045Z,60.38
2022-11-21T04:21:16.035Z,60.38
2022-11-21T04:22:16.018Z,60.38
2022-11-21T04:23:16.007Z,60.38
2022-11-21T04:24:16.005Z,60.38
2022-11-21T04:25:16.007Z,60.38
2022-11-21T04:26:15.966Z,60.38
2022-11-21T04:27:15.954Z,60.38
2022-11-21T04:28:15.944Z,60.27
2022-11-21T04:29:15.927Z,60.38
2022-11-21T04:30:15.918Z,60.38
2022-11-21T04:31:15.904Z,60.38
2022-11-21T04:32:15.889Z,60.38
2022-11-21T04:33:15.875Z,60.38
2022-11-21T04:34:15.860Z,60.38
2022-11-21T04:35:15.850Z,60.38
2022-11-21T04:36:15.835Z,60.38
2022-11-21T04:37:15.867Z,60.38
2022-11-21T04:38:15.809Z,60.38
2022-11-21T04:39:15.796Z,60.38
2022-11-21T04:40:15.783Z,60.38
2022-11-21T04:41:15.797Z,60.48
2022-11-21T04:42:15.755Z,60.48
2022-11-21T04:43:15.744Z,60.38
2022-11-21T04:44:15.732Z,60.48
2022-11-21T04:45:15.718Z,60.48
2022-11-21T04:46:15.702Z,60.48
2022-11-21T04:47:15.691Z,60.38
2022-11-21T04:48:15.678Z,60.48
2022-11-21T04:49:15.668Z,60.48
2022-11-21T04:50:15.654Z,60.38
2022-11-21T04:51:15.641Z,60.38
2022-11-21T04:52:15.626Z,60.38
2022-11-21T04:53:15.612Z,60.38
2022-11-21T04:54:15.597Z,60.38
2022-11-21T04:55:15.587Z,60.38
2022-11-21T04:56:15.576Z,60.48
2022-11-21T04:57:15.585Z,60.48
2022-11-21T04:58:15.546Z,60.48
2022-11-21T04:59:15.534Z,60.48
2022-11-21T05:00:18.551Z,60.48
2022-11-21T05:01:16.627Z,60.48
2022-11-21T05:02:15.492Z,60.48
2022-11-21T05:03:15.482Z,60.48
2022-11-21T05:04:15.467Z,60.38
2022-11-21T05:05:15.454Z,60.48
2022-11-21T05:06:15.436Z,60.48
2022-11-21T05:07:15.494Z,60.48
2022-11-21T05:08:15.409Z,60.48
2022-11-21T05:09:15.396Z,60.48
2022-11-21T05:10:15.386Z,60.48
2022-11-21T05:11:15.376Z,60.48
2022-11-21T05:12:15.359Z,60.48
2022-11-21T05:13:15.374Z,60.48
2022-11-21T05:14:15.331Z,60.48
2022-11-21T05:15:16.562Z,60.48
2022-11-21T05:16:15.308Z,60.48
2022-11-21T05:17:15.296Z,60.48
2022-11-21T05:18:15.280Z,60.48
2022-11-21T05:19:15.268Z,60.48
2022-11-21T05:20:15.255Z,60.48
2022-11-21T05:21:15.241Z,60.48
2022-11-21T05:22:15.226Z,60.48
2022-11-21T05:23:15.219Z,60.48
2022-11-21T05:24:15.200Z,60.48
2022-11-21T05:25:15.190Z,60.48
2022-11-21T05:26:15.176Z,60.48
2022-11-21T05:27:15.165Z,60.48
2022-11-21T05:28:15.151Z,60.48
2022-11-21T05:29:15.162Z,60.48
2022-11-21T05:30:15.129Z,60.48
2022-11-21T05:31:15.114Z,60.48
2022-11-21T05:32:15.098Z,60.48
2022-11-21T05:33:15.086Z,60.48
2022-11-21T05:34:15.073Z,60.48
2022-11-21T05:35:15.062Z,60.48
2022-11-21T05:36:15.047Z,60.38
2022-11-21T05:37:15.035Z,60.48
2022-11-21T05:38:15.020Z,60.48
2022-11-21T05:39:15.008Z,60.48
2022-11-21T05:40:14.995Z,60.48
2022-11-21T05:41:14.983Z,60.48
2022-11-21T05:42:14.967Z,60.48
2022-11-21T05:43:14.960Z,60.48
2022-11-21T05:44:14.940Z,60.48
2022-11-21T05:45:14.955Z,60.48
2022-11-21T05:46:14.916Z,60.48
2022-11-21T05:47:14.903Z,60.48
2022-11-21T05:48:14.892Z,60.48
2022-11-21T05:49:14.880Z,60.48
2022-11-21T05:50:14.868Z,60.48
2022-11-21T05:51:14.854Z,60.48
2022-11-21T05:52:14.838Z,60.38
2022-11-21T05:53:14.828Z,60.38
2022-11-21T05:54:14.815Z,60.38
2022-11-21T05:55:14.809Z,60.38
2022-11-21T05:56:14.786Z,60.48
2022-11-21T05:57:14.781Z,60.48
2022-11-21T05:58:14.763Z,60.48
2022-11-21T05:59:14.752Z,60.38
2022-11-21T06:00:14.736Z,60.38
2022-11-21T06:01:14.771Z,60.38
2022-11-21T06:02:14.712Z,60.48
2022-11-21T06:03:14.808Z,60.48
2022-11-21T06:04:14.681Z,60.48
2022-11-21T06:05:14.672Z,60.48
2022-11-21T06:06:14.656Z,60.48
2022-11-21T06:07:14.680Z,60.48
2022-11-21T06:08:14.635Z,60.48
2022-11-21T06:09:14.621Z,60.48
2022-11-21T06:10:14.606Z,60.58
2022-11-21T06:11:14.597Z,60.58
2022-11-21T06:12:14.604Z,60.58
2022-11-21T06:13:14.574Z,60.58
2022-11-21T06:14:14.594Z,60.58
2022-11-21T06:15:14.611Z,60.58
2022-11-21T06:16:14.537Z,60.68
2022-11-21T06:17:14.561Z,60.58
2022-11-21T06:18:44.979Z,60.68
2022-11-21T06:19:44.979Z,60.58
2022-11-21T06:20:44.946Z,60.48
2022-11-21T06:21:44.945Z,60.48
2022-11-21T06:22:44.904Z,60.48
2022-11-21T06:23:44.970Z,60.48
2022-11-21T06:24:44.875Z,60.38
2022-11-21T06:25:44.862Z,60.27
2022-11-21T06:26:44.848Z,60.27
2022-11-21T06:27:44.837Z,60.17
2022-11-21T06:28:44.824Z,60.07
2022-11-21T06:29:44.812Z,59.97
2022-11-21T06:30:44.796Z,59.86
2022-11-21T06:31:44.793Z,59.86
2022-11-21T06:32:44.849Z,59.86
2022-11-21T06:33:44.758Z,59.76
2022-11-21T06:34:44.743Z,59.86
2022-11-21T06:35:44.734Z,59.66
2022-11-21T06:36:44.716Z,59.55
2022-11-21T06:37:46.562Z,59.66
2022-11-21T06:38:44.704Z,59.66
2022-11-21T06:39:44.679Z,59.66
2022-11-21T06:40:44.668Z,59.55
2022-11-21T06:41:44.653Z,59.55
2022-11-21T06:42:44.638Z,59.66
2022-11-21T06:43:44.632Z,59.66
2022-11-21T06:44:44.614Z,59.55
2022-11-21T06:45:44.604Z,59.55
2022-11-21T06:46:49.664Z,59.55
2022-11-21T06:47:45.614Z,59.55
2022-11-21T06:48:44.633Z,59.55
2022-11-21T06:49:44.549Z,59.55
2022-11-21T06:50:44.535Z,59.55
2022-11-21T06:51:44.525Z,59.66
2022-11-21T06:52:44.517Z,59.66
2022-11-21T06:53:44.501Z,59.66
2022-11-21T06:54:44.485Z,59.66
2022-11-21T06:55:44.491Z,59.66
2022-11-21T06:56:44.472Z,59.66
2022-11-21T06:57:44.443Z,59.66
2022-11-21T06:58:44.436Z,59.66
2022-11-21T06:59:44.418Z,59.76
2022-11-21T07:00:44.406Z,59.76
2022-11-21T07:01:44.470Z,59.76
2022-11-21T07:02:44.375Z,59.76
2022-11-21T07:03:44.365Z,59.76
2022-11-21T07:04:44.374Z,59.76
2022-11-21T07:05:44.339Z,59.76
2022-11-21T07:06:44.326Z,59.76
2022-11-21T07:07:44.390Z,59.76
2022-11-21T07:08:44.298Z,59.76
2022-11-21T07:09:44.284Z,59.76
2022-11-21T07:11:03.370Z,59.76
2022-11-21T07:11:45.300Z,59.76
2022-11-21T07:12:44.244Z,59.66
2022-11-21T07:13:44.233Z,59.76
2022-11-21T07:14:44.218Z,59.76
2022-11-21T07:15:44.207Z,59.76
2022-11-21T07:16:44.192Z,59.76
2022-11-21T07:17:44.181Z,59.76
2022-11-21T07:18:44.170Z,59.76
2022-11-21T07:19:44.156Z,59.76
2022-11-21T07:20:44.164Z,59.76
2022-11-21T07:21:44.145Z,59.76
2022-11-21T07:22:44.117Z,59.76
2022-11-21T07:23:44.109Z,59.76
2022-11-21T07:24:44.111Z,59.76
2022-11-21T07:25:44.076Z,59.76
2022-11-21T07:26:44.063Z,59.76
2022-11-21T07:27:44.051Z,59.86
2022-11-21T07:28:44.036Z,59.86
2022-11-21T07:29:44.028Z,59.76
2022-11-21T07:30:44.010Z,59.86
2022-11-21T07:31:44.003Z,59.86
2022-11-21T07:32:43.985Z,59.97
2022-11-21T07:33:43.974Z,59.97
2022-11-21T07:34:43.957Z,59.86
2022-11-21T07:35:43.951Z,59.86
2022-11-21T07:36:43.956Z,59.97
2022-11-21T07:37:43.920Z,59.97
2022-11-21T07:38:43.906Z,59.97
2022-11-21T07:39:43.895Z,59.97
2022-11-21T07:40:43.881Z,59.97
2022-11-21T07:41:43.869Z,59.97
2022-11-21T07:42:43.856Z,59.97
2022-11-21T07:43:43.842Z,59.97
2022-11-21T07:44:43.829Z,59.97
2022-11-21T07:45:43.821Z,59.97
2022-11-21T07:46:43.803Z,59.97
2022-11-21T07:47:43.792Z,60.07
2022-11-21T07:48:43.776Z,60.07
2022-11-21T07:49:43.765Z,60.07
2022-11-21T07:50:43.751Z,60.07
2022-11-21T07:51:43.739Z,60.07
2022-11-21T07:52:43.748Z,60.07
2022-11-21T07:53:43.710Z,60.07
2022-11-21T07:54:43.696Z,60.07
2022-11-21T07:55:43.687Z,60.07
2022-11-21T07:56:43.673Z,59.97
2022-11-21T07:57:43.660Z,59.97
2022-11-21T07:58:43.646Z,59.97
2022-11-21T07:59:43.636Z,59.86
2022-11-21T08:00:43.664Z,59.86
2022-11-21T08:01:45.613Z,59.86
2022-11-21T08:02:43.593Z,59.86
2022-11-21T08:03:43.581Z,59.86
2022-11-21T08:04:43.568Z,59.86
2022-11-21T08:05:43.579Z,59.86
2022-11-21T08:06:43.543Z,59.55
2022-11-21T08:07:43.561Z,59.55
2022-11-21T08:08:43.538Z,59.55
2022-11-21T08:09:43.504Z,59.55
2022-11-21T08:10:43.488Z,59.46
2022-11-21T08:11:43.480Z,59.55
2022-11-21T08:12:43.463Z,59.55
2022-11-21T08:13:43.451Z,59.46
2022-11-21T08:14:43.437Z,59.46
2022-11-21T08:15:43.424Z,59.25
2022-11-21T08:16:43.422Z,59.25
2022-11-21T08:17:43.396Z,59.14
2022-11-21T08:18:43.388Z,59.05
2022-11-21T08:19:43.372Z,58.94
2022-11-21T08:20:43.359Z,58.94
2022-11-21T08:21:43.345Z,59.05
2022-11-21T08:22:43.334Z,58.84
2022-11-21T08:23:43.324Z,58.84
2022-11-21T08:24:43.331Z,58.84
2022-11-21T08:25:43.295Z,58.84
2022-11-21T08:26:43.282Z,58.84
2022-11-21T08:27:43.266Z,58.84
2022-11-21T08:28:43.258Z,58.84
2022-11-21T08:29:43.256Z,58.84
2022-11-21T08:30:43.231Z,58.74
2022-11-21T08:31:43.216Z,58.74
2022-11-21T08:32:43.204Z,58.74
2022-11-21T08:33:43.191Z,58.74
2022-11-21T08:34:43.178Z,58.74
2022-11-21T08:35:43.167Z,58.74
2022-11-21T08:36:43.154Z,58.74
2022-11-21T08:37:43.139Z,58.74
2022-11-21T08:38:43.129Z,58.74
2022-11-21T08:39:43.111Z,58.74
2022-11-21T08:40:43.123Z,58.74
2022-11-21T08:41:43.087Z,58.74
2022-11-21T08:42:43.077Z,58.74
2022-11-21T08:43:43.061Z,58.74
2022-11-21T08:44:43.064Z,58.74
2022-11-21T08:45:43.035Z,58.74
2022-11-21T08:46:43.023Z,58.74
2022-11-21T08:47:43.011Z,58.74
2022-11-21T08:48:43.000Z,58.63
2022-11-21T08:49:42.982Z,58.63
2022-11-21T08:50:42.971Z,58.63
2022-11-21T08:51:42.957Z,58.63
2022-11-21T08:52:42.944Z,58.74
2022-11-21T08:53:42.944Z,58.74
2022-11-21T08:54:42.919Z,58.74
2022-11-21T08:55:42.905Z,58.74
2022-11-21T08:56:42.916Z,58.74
2022-11-21T08:57:42.881Z,58.74
2022-11-21T08:58:42.866Z,58.74
2022-11-21T08:59:42.854Z,58.74
2022-11-21T09:00:42.844Z,58.74
2022-11-21T09:01:42.950Z,58.74
2022-11-21T09:02:42.815Z,58.74
2022-11-21T09:03:42.800Z,58.74
2022-11-21T09:04:42.789Z,58.74
2022-11-21T09:05:42.772Z,58.74
2022-11-21T09:06:42.763Z,58.74
2022-11-21T09:07:42.848Z,58.74
2022-11-21T09:08:42.737Z,58.84
2022-11-21T09:09:42.723Z,58.84
2022-11-21T09:10:42.713Z,58.84
2022-11-21T09:11:42.696Z,58.84
2022-11-21T09:12:42.724Z,58.94
2022-11-21T09:13:42.668Z,58.94
2022-11-21T09:14:42.657Z,58.94
2022-11-21T09:15:42.642Z,58.94
2022-11-21T09:16:42.636Z,58.94
2022-11-21T09:17:42.615Z,58.94
2022-11-21T09:18:42.605Z,59.05
2022-11-21T09:19:42.594Z,59.05
2022-11-21T09:20:42.760Z,59.05
2022-11-21T09:21:42.565Z,58.94
2022-11-21T09:22:42.554Z,58.94
2022-11-21T09:23:42.540Z,58.94
2022-11-21T09:24:42.528Z,59.05
2022-11-21T09:25:42.515Z,59.05
2022-11-21T09:26:42.504Z,58.94
2022-11-21T09:27:42.486Z,59.05
2022-11-21T09:28:42.499Z,59.05
2022-11-21T09:29:42.462Z,58.94
2022-11-21T09:30:42.450Z,58.94
2022-11-21T09:31:42.443Z,58.84
2022-11-21T09:32:42.427Z,58.94
2022-11-21T09:33:42.411Z,58.84
2022-11-21T09:34:42.400Z,58.84
2022-11-21T09:35:42.396Z,58.74
2022-11-21T09:36:42.373Z,58.74
2022-11-21T09:37:42.359Z,58.74
2022-11-21T09:38:42.347Z,58.74
2022-11-21T09:39:42.336Z,58.53
2022-11-21T09:40:42.322Z,58.43
2022-11-21T09:41:42.309Z,58.43
2022-11-21T09:42:42.303Z,58.20
2022-11-21T09:43:42.281Z,58.20
2022-11-21T09:44:42.293Z,58.09
2022-11-21T09:45:42.255Z,57.99
2022-11-21T09:46:42.247Z,57.99
2022-11-21T09:47:42.230Z,57.99
2022-11-21T09:48:42.222Z,57.99
2022-11-21T09:49:42.204Z,57.89
2022-11-21T09:50:42.192Z,57.99
2022-11-21T09:51:42.180Z,57.99
2022-11-21T09:52:42.170Z,57.99
2022-11-21T09:53:42.151Z,57.99
2022-11-21T09:54:42.143Z,57.99
2022-11-21T09:55:42.126Z,57.99
2022-11-21T09:56:42.115Z,58.09
2022-11-21T09:57:42.099Z,57.99
2022-11-21T09:58:42.090Z,57.99
2022-11-21T09:59:42.071Z,57.99
2022-11-21T10:00:42.119Z,57.99
2022-11-21T10:01:42.047Z,57.99
2022-11-21T10:02:42.034Z,58.09
2022-11-21T10:03:42.019Z,58.09
2022-11-21T10:04:42.010Z,58.09
2022-11-21T10:05:42.001Z,58.09
2022-11-21T10:06:41.983Z,58.09
2022-11-21T10:07:42.020Z,58.20
2022-11-21T10:08:41.969Z,58.20
2022-11-21T10:09:41.942Z,58.20
2022-11-21T10:10:41.928Z,58.20
2022-11-21T10:11:41.920Z,58.30
2022-11-21T10:12:42.105Z,58.30
2022-11-21T10:13:41.896Z,58.30
2022-11-21T10:14:41.878Z,58.30
2022-11-21T10:15:41.862Z,58.30
2022-11-21T10:16:42.364Z,58.40
2022-11-21T10:17:41.837Z,58.40
2022-11-21T10:18:41.825Z,58.40
2022-11-21T10:19:41.810Z,58.30
2022-11-21T10:20:41.799Z,58.40
2022-11-21T10:21:41.785Z,58.40
2022-11-21T10:22:41.775Z,58.40
2022-11-21T10:23:41.758Z,58.40
2022-11-21T10:24:41.751Z,58.50
2022-11-21T10:25:41.733Z,58.50
2022-11-21T10:26:41.720Z,58.50
2022-11-21T10:27:41.709Z,58.50
2022-11-21T10:28:41.694Z,58.40
2022-11-21T10:29:41.686Z,58.40
2022-11-21T10:30:41.669Z,58.40
2022-11-21T10:31:41.653Z,58.40
2022-11-21T10:32:41.670Z,58.30
2022-11-21T10:33:41.630Z,58.30
2022-11-21T10:34:41.616Z,58.40
2022-11-21T10:35:41.604Z,58.40
2022-11-21T10:36:41.590Z,58.40
2022-11-21T10:37:41.575Z,58.50
2022-11-21T10:38:41.564Z,58.50
2022-11-21T10:39:41.548Z,58.50
2022-11-21T10:40:41.538Z,58.61
2022-11-21T10:41:41.528Z,58.61
2022-11-21T10:42:41.510Z,58.50
2022-11-21T10:43:41.494Z,58.50
2022-11-21T10:44:41.485Z,58.30
2022-11-21T10:45:41.469Z,58.20
2022-11-21T10:46:41.458Z,58.30
2022-11-21T10:47:41.443Z,58.30
2022-11-21T10:48:41.455Z,58.30
2022-11-21T10:49:41.418Z,58.20
2022-11-21T10:50:41.406Z,58.20
2022-11-21T10:51:41.390Z,58.20
2022-11-21T10:52:41.379Z,58.20
2022-11-21T10:53:41.365Z,58.40
2022-11-21T10:54:41.353Z,58.30
2022-11-21T10:55:41.342Z,58.09
2022-11-21T10:56:41.330Z,58.20
2022-11-21T10:57:41.311Z,58.20
2022-11-21T10:58:41.303Z,58.40
2022-11-21T10:59:41.285Z,58.40
2022-11-21T11:00:41.379Z,58.40
2022-11-21T11:01:41.259Z,58.40
2022-11-21T11:02:41.246Z,58.40
2022-11-21T11:03:41.234Z,58.40
2022-11-21T11:04:49.080Z,58.40
2022-11-21T11:05:42.247Z,58.40
2022-11-21T11:06:41.197Z,58.20
2022-11-21T11:07:41.228Z,58.30
2022-11-21T11:08:41.176Z,58.30
2022-11-21T11:09:41.155Z,58.09
2022-11-21T11:10:41.143Z,58.20
2022-11-21T11:11:41.129Z,58.20
2022-11-21T11:12:41.118Z,57.99
2022-11-21T11:13:46.375Z,57.89
2022-11-21T11:14:41.092Z,58.09
2022-11-21T11:15:41.074Z,57.99
2022-11-21T11:16:41.837Z,57.79
2022-11-21T11:17:41.050Z,57.89
2022-11-21T11:18:41.039Z,57.89
2022-11-21T11:19:41.428Z,57.89
2022-11-21T11:20:41.038Z,57.89
2022-11-21T11:21:41.000Z,57.79
2022-11-21T11:22:41.029Z,57.89
2022-11-21T11:23:40.971Z,57.89
2022-11-21T11:24:40.960Z,57.69
2022-11-21T11:25:40.943Z,57.58
2022-11-21T11:26:40.931Z,57.48
2022-11-21T11:27:40.921Z,57.28
2022-11-21T11:28:40.905Z,57.28
2022-11-21T11:29:40.891Z,57.17
2022-11-21T11:30:40.880Z,57.17
2022-11-21T11:31:40.882Z,57.17
2022-11-21T11:32:40.855Z,57.17
2022-11-21T11:33:40.837Z,57.17
2022-11-21T11:34:40.825Z,57.17
2022-11-21T11:35:40.813Z,57.17
2022-11-21T11:36:40.823Z,57.28
2022-11-21T11:37:41.434Z,57.28
2022-11-21T11:38:40.776Z,57.28
2022-11-21T11:39:40.759Z,57.28
2022-11-21T11:40:40.747Z,57.28
2022-11-21T11:41:40.732Z,57.28
2022-11-21T11:42:40.721Z,57.37
2022-11-21T11:43:40.707Z,57.37
2022-11-21T11:44:40.695Z,57.37
2022-11-21T11:45:40.680Z,57.37
2022-11-21T11:46:40.663Z,57.37
2022-11-21T11:47:40.651Z,57.37
2022-11-21T11:48:56.592Z,57.48
2022-11-21T11:49:40.623Z,57.48
2022-11-21T11:50:40.614Z,57.48
2022-11-21T11:51:40.600Z,57.48
2022-11-21T11:52:40.615Z,57.48
2022-11-21T11:53:40.574Z,57.48
2022-11-21T11:54:40.563Z,57.48
2022-11-21T11:55:40.547Z,57.58
2022-11-21T11:56:40.539Z,57.69
2022-11-21T11:57:40.521Z,57.69
2022-11-21T11:58:40.513Z,57.69
2022-11-21T11:59:40.518Z,57.69
2022-11-21T12:00:40.487Z,57.79
2022-11-21T12:01:40.565Z,57.69
2022-11-21T12:02:40.497Z,57.69
2022-11-21T12:03:40.447Z,57.79
2022-11-21T12:04:40.433Z,57.79
2022-11-21T12:05:40.418Z,57.79
2022-11-21T12:07:26.194Z,57.79
2022-11-21T12:08:38.751Z,57.79
2022-11-21T12:08:42.802Z,57.89
2022-11-21T12:09:40.493Z,57.79
2022-11-21T12:10:40.355Z,57.89
2022-11-21T12:11:40.338Z,57.89
2022-11-21T12:12:40.326Z,57.89
2022-11-21T12:13:40.312Z,57.89
2022-11-21T12:14:40.303Z,57.89
2022-11-21T12:15:40.293Z,57.89
2022-11-21T12:16:40.278Z,57.99
2022-11-21T12:17:40.268Z,57.99
2022-11-21T12:18:40.250Z,57.99
2022-11-21T12:19:40.235Z,57.99
2022-11-21T12:20:40.225Z,58.09
2022-11-21T12:21:40.208Z,57.99
2022-11-21T12:22:40.198Z,57.99
2022-11-21T12:23:40.184Z,57.99
2022-11-21T12:24:43.247Z,58.09
2022-11-21T12:25:40.156Z,58.09
2022-11-21T12:26:40.144Z,58.09
2022-11-21T12:27:40.132Z,58.09
2022-11-21T12:28:40.118Z,58.09
2022-11-21T12:29:40.103Z,58.20
2022-11-21T12:30:40.092Z,58.20
2022-11-21T12:31:40.079Z,58.20
2022-11-21T12:32:40.063Z,58.20
2022-11-21T12:33:40.054Z,58.20
2022-11-21T12:34:40.039Z,58.20
2022-11-21T12:35:40.037Z,58.20
2022-11-21T12:36:40.041Z,58.20
2022-11-21T12:37:40.003Z,58.20
2022-11-21T12:38:44.740Z,58.30
2022-11-21T12:39:39.980Z,58.40
2022-11-21T12:40:40.031Z,58.40
2022-11-21T12:41:39.949Z,58.50
2022-11-21T12:42:39.935Z,58.50
2022-11-21T12:43:39.924Z,58.50
2022-11-21T12:44:39.909Z,58.61
2022-11-21T12:45:39.896Z,58.61
2022-11-21T12:46:39.883Z,58.71
2022-11-21T12:47:39.871Z,58.71
2022-11-21T12:48:39.856Z,58.71
2022-11-21T12:49:39.844Z,58.81
2022-11-21T12:50:39.834Z,58.94
2022-11-21T12:51:39.821Z,58.94
2022-11-21T12:52:39.804Z,58.91